createdAt,value
2023-03-05T00:02:04.758Z,1.98
2023-03-05T00:04:51.826Z,4.30
2023-03-05T00:07:37.408Z,3.88
2023-03-05T00:10:22.964Z,2.78
2023-03-05T00:13:08.538Z,4.03
2023-03-05T00:15:54.473Z,4.70
2023-03-05T00:18:41.429Z,1.25
2023-03-05T00:21:32.165Z,3.28
2023-03-05T00:24:18.770Z,1.73
2023-03-05T00:27:04.585Z,2.28
2023-03-05T00:29:50.249Z,2.00
2023-03-05T00:32:36.414Z,2.13
2023-03-05T00:35:22.040Z,1.02
2023-03-05T00:38:07.496Z,1.23
2023-03-05T00:40:53.132Z,1.52
2023-03-05T00:43:38.682Z,2.90
2023-03-05T00:46:26.946Z,3.85
2023-03-05T00:49:12.684Z,3.13
2023-03-05T00:51:58.295Z,2.70
2023-03-05T00:54:43.874Z,2.38
2023-03-05T00:57:29.927Z,2.90
2023-03-05T01:00:16.649Z,3.83
2023-03-05T01:03:02.289Z,2.35
2023-03-05T01:05:48.007Z,2.70
2023-03-05T01:08:34.155Z,2.85
2023-03-05T01:11:19.534Z,1.63
2023-03-05T01:14:05.220Z,1.52
2023-03-05T01:16:50.709Z,2.22
2023-03-05T01:19:36.340Z,2.60
2023-03-05T01:22:21.581Z,1.77
2023-03-05T01:25:07.338Z,2.17
2023-03-05T01:27:52.821Z,2.40
2023-03-05T01:30:38.401Z,1.88
2023-03-05T01:33:23.716Z,3.75
2023-03-05T01:36:13.547Z,3.97
2023-03-05T01:38:59.240Z,4.53
2023-03-05T01:41:44.834Z,4.03
2023-03-05T01:44:30.909Z,4.50
2023-03-05T01:47:18.186Z,6.22
2023-03-05T01:50:07.180Z,5.10
2023-03-05T01:52:59.428Z,4.47
2023-03-05T01:55:45.406Z,5.07
2023-03-05T01:58:30.757Z,5.22
2023-03-05T02:01:17.169Z,5.78
2023-03-05T02:04:03.277Z,5.18
2023-03-05T02:06:49.918Z,7.30
2023-03-05T02:09:39.722Z,7.32
2023-03-05T02:12:25.934Z,6.90
2023-03-05T02:15:12.677Z,7.03
2023-03-05T02:17:58.238Z,5.65
2023-03-05T02:20:57.263Z,7.45
2023-03-05T02:23:42.980Z,21.05
2023-03-05T02:26:28.642Z,20.92
2023-03-05T02:29:19.173Z,19.15
2023-03-05T02:32:04.967Z,16.73
2023-03-05T02:34:50.661Z,13.45
2023-03-05T02:37:36.742Z,13.60
2023-03-05T02:40:22.879Z,10.85
2023-03-05T02:43:09.276Z,8.70
2023-03-05T02:45:55.188Z,6.50
2023-03-05T02:48:41.266Z,6.72
2023-03-05T02:51:29.186Z,7.32
2023-03-05T02:54:15.056Z,7.65
2023-03-05T02:57:00.923Z,5.22
2023-03-05T02:59:46.970Z,4.95
2023-03-05T03:02:32.538Z,5.65
2023-03-05T03:05:18.213Z,5.30
2023-03-05T03:08:04.224Z,4.10
2023-03-05T03:10:49.891Z,2.65
2023-03-05T03:13:35.614Z,1.63
2023-03-05T03:16:21.764Z,1.73
2023-03-05T03:19:07.686Z,2.17
2023-03-05T03:21:55.153Z,1.65
2023-03-05T03:24:41.923Z,2.00
2023-03-05T03:27:27.629Z,1.77
2023-03-05T03:30:14.444Z,1.90
2023-03-05T03:33:00.178Z,2.55
2023-03-05T03:35:46.509Z,1.77
2023-03-05T03:38:32.072Z,2.42
2023-03-05T03:41:18.904Z,1.95
2023-03-05T03:44:07.145Z,2.35
2023-03-05T03:46:54.277Z,2.42
2023-03-05T03:49:39.689Z,2.28
2023-03-05T03:52:26.494Z,2.20
2023-03-05T03:55:12.114Z,2.15
2023-03-05T03:57:57.722Z,2.15
2023-03-05T04:00:43.254Z,2.63
2023-03-05T04:03:28.735Z,2.08
2023-03-05T04:06:15.454Z,1.98
2023-03-05T04:09:01.040Z,3.33
2023-03-05T04:11:46.677Z,3.90
2023-03-05T04:14:32.384Z,3.00
2023-03-05T04:17:17.715Z,2.35
2023-03-05T04:20:05.114Z,1.70
2023-03-05T04:22:50.587Z,2.28
2023-03-05T04:25:36.033Z,2.05
2023-03-05T04:28:21.732Z,2.80
2023-03-05T04:31:07.217Z,5.38
2023-03-05T04:33:52.786Z,5.90
2023-03-05T04:36:38.453Z,6.60
2023-03-05T04:39:24.329Z,5.63
2023-03-05T04:42:10.629Z,6.15
2023-03-05T04:44:56.089Z,5.53
2023-03-05T04:47:42.001Z,7.40
2023-03-05T04:50:27.378Z,7.05
2023-03-05T04:53:13.539Z,9.05
2023-03-05T04:56:01.590Z,9.57
2023-03-05T04:58:47.660Z,10.23
2023-03-05T05:01:35.460Z,8.32
2023-03-05T05:04:21.095Z,8.52
2023-03-05T05:07:07.842Z,9.30
2023-03-05T05:09:53.270Z,7.88
2023-03-05T05:12:38.965Z,5.97
2023-03-05T05:15:24.605Z,6.18
2023-03-05T05:18:10.191Z,13.73
2023-03-05T05:20:56.048Z,17.52
2023-03-05T05:23:41.803Z,15.38
2023-03-05T05:26:27.875Z,12.07
2023-03-05T05:29:15.100Z,9.75
2023-03-05T05:32:00.683Z,7.00
2023-03-05T05:34:51.661Z,8.65
2023-03-05T05:37:37.326Z,8.55
2023-03-05T05:40:22.879Z,9.98
2023-03-05T05:43:08.964Z,8.27
2023-03-05T05:45:54.424Z,12.82
2023-03-05T05:48:40.323Z,14.55
2023-03-05T05:51:25.734Z,11.18
2023-03-05T05:54:15.408Z,8.45
2023-03-05T05:57:04.209Z,6.15
2023-03-05T05:59:50.000Z,5.53
2023-03-05T06:02:41.641Z,5.90
2023-03-05T06:05:28.069Z,5.43
2023-03-05T06:08:14.256Z,5.78
2023-03-05T06:10:59.806Z,6.22
2023-03-05T06:13:45.962Z,3.42
2023-03-05T06:16:31.236Z,2.70
2023-03-05T06:19:17.050Z,2.05
2023-03-05T06:22:03.078Z,2.30
2023-03-05T06:24:48.722Z,2.00
2023-03-05T06:27:38.377Z,1.88
2023-03-05T06:30:23.912Z,1.50
2023-03-05T06:33:21.416Z,2.47
2023-03-05T06:36:19.758Z,1.80
2023-03-05T06:39:05.452Z,1.20
2023-03-05T06:41:52.208Z,2.75
2023-03-05T06:44:40.287Z,3.30
2023-03-05T06:47:25.547Z,2.60
2023-03-05T06:50:13.951Z,2.70
2023-03-05T06:52:59.476Z,2.10
2023-03-05T06:55:45.521Z,1.77
2023-03-05T06:58:31.414Z,1.42
2023-03-05T07:01:16.984Z,1.65
2023-03-05T07:04:03.380Z,3.63
2023-03-05T07:06:51.583Z,1.40
2023-03-05T07:09:57.551Z,2.58
2023-03-05T07:12:54.455Z,2.40
2023-03-05T07:16:00.378Z,4.30
2023-03-05T07:19:00.985Z,1.50
2023-03-05T07:21:48.190Z,2.60
2023-03-05T07:24:35.618Z,2.70
2023-03-05T07:27:26.140Z,1.30
2023-03-05T07:30:12.995Z,3.10
2023-03-05T07:32:58.758Z,1.80
2023-03-05T07:35:44.291Z,2.53
2023-03-05T07:38:30.035Z,2.60
2023-03-05T07:41:20.082Z,3.20
2023-03-05T07:44:06.275Z,2.67
2023-03-05T07:46:54.240Z,3.38
2023-03-05T07:49:41.780Z,2.35
2023-03-05T07:52:35.886Z,1.85
2023-03-05T07:55:21.560Z,1.60
2023-03-05T07:58:08.984Z,3.22
2023-03-05T08:00:54.933Z,2.42
2023-03-05T08:03:44.697Z,1.23
2023-03-05T08:06:30.742Z,1.92
2023-03-05T08:09:17.836Z,2.10
2023-03-05T08:12:33.969Z,2.20
2023-03-05T08:15:34.430Z,1.38
2023-03-05T08:21:36.786Z,2.13
2023-03-05T08:24:37.034Z,1.17
2023-03-05T08:27:40.834Z,1.52
2023-03-05T08:34:00.210Z,0.90
2023-03-05T08:37:04.520Z,1.23
2023-03-05T08:40:02.466Z,2.83
2023-03-05T08:43:06.932Z,3.28
2023-03-05T08:46:17.914Z,1.02
2023-03-05T08:49:12.694Z,1.20
2023-03-05T08:52:46.460Z,2.03
2023-03-05T08:55:58.189Z,1.98
2023-03-05T08:58:56.210Z,1.70
2023-03-05T09:02:12.499Z,1.08
2023-03-05T09:04:57.764Z,3.10
2023-03-05T09:07:55.205Z,1.65
2023-03-05T09:11:26.929Z,1.60
2023-03-05T09:14:23.367Z,2.90
2023-03-05T09:17:31.252Z,2.40
2023-03-05T09:20:30.310Z,1.20
2023-03-05T09:26:21.824Z,2.65
2023-03-05T09:29:08.940Z,1.60
2023-03-05T09:31:57.689Z,2.55
2023-03-05T09:35:11.179Z,3.25
2023-03-05T09:37:59.400Z,2.85
2023-03-05T09:41:07.373Z,2.65
2023-03-05T09:44:14.856Z,1.88
2023-03-05T09:47:15.436Z,2.40
2023-03-05T09:50:25.049Z,1.90
2023-03-05T09:53:22.619Z,2.45
2023-03-05T10:00:09.176Z,2.85
2023-03-05T10:03:04.249Z,2.83
2023-03-05T10:05:58.587Z,2.38
2023-03-05T10:08:52.131Z,2.45
2023-03-05T10:12:02.383Z,1.80
2023-03-05T10:14:50.756Z,2.65
2023-03-05T10:18:46.718Z,2.38
2023-03-05T10:21:53.158Z,3.05
2023-03-05T10:25:11.010Z,3.72
2023-03-05T10:28:05.922Z,3.85
2023-03-05T10:31:18.353Z,4.75
2023-03-05T10:34:49.980Z,4.57
2023-03-05T10:37:54.625Z,5.22
2023-03-05T10:41:05.515Z,4.25
2023-03-05T10:43:57.951Z,7.97
2023-03-05T10:46:46.005Z,3.67
2023-03-05T10:49:50.407Z,5.03
2023-03-05T10:52:50.970Z,3.13
2023-03-05T10:55:40.329Z,3.25
2023-03-05T10:58:28.200Z,4.13
2023-03-05T11:01:15.617Z,4.47
2023-03-05T11:04:06.854Z,4.05
2023-03-05T11:06:52.557Z,3.70
2023-03-05T11:09:38.333Z,4.40
2023-03-05T11:12:28.124Z,4.70
2023-03-05T11:15:13.518Z,6.85
2023-03-05T11:18:25.471Z,3.88
2023-03-05T11:21:24.818Z,4.60
2023-03-05T11:24:19.887Z,5.28
2023-03-05T11:27:32.512Z,4.38
2023-03-05T11:30:32.574Z,4.57
2023-03-05T11:33:24.316Z,6.22
2023-03-05T11:36:35.624Z,3.30
2023-03-05T11:39:23.905Z,4.22
2023-03-05T11:42:26.253Z,3.13
2023-03-05T11:48:18.864Z,6.00
2023-03-05T11:51:18.307Z,3.75
2023-03-05T11:54:08.959Z,4.00
2023-03-05T11:56:55.321Z,3.70
2023-03-05T11:59:44.716Z,3.30
2023-03-05T12:02:30.226Z,2.70
2023-03-05T12:05:17.413Z,2.90
2023-03-05T12:08:05.788Z,3.72
2023-03-05T12:10:53.018Z,4.60
2023-03-05T12:13:45.335Z,2.22
2023-03-05T12:16:51.772Z,6.13
2023-03-05T12:19:41.580Z,7.65
2023-03-05T12:22:36.594Z,4.63
2023-03-05T12:25:35.213Z,5.82
2023-03-05T12:28:55.794Z,8.13
2023-03-05T12:31:44.287Z,9.07
2023-03-05T12:34:41.003Z,5.28
2023-03-05T12:37:28.170Z,5.68
2023-03-05T12:40:23.049Z,4.15
2023-03-05T12:43:30.323Z,5.35
2023-03-05T12:46:23.780Z,4.43
2023-03-05T12:49:19.129Z,4.43
2023-03-05T12:52:12.679Z,2.75
2023-03-05T12:55:15.388Z,3.05
2023-03-05T13:01:29.401Z,3.30
2023-03-05T13:04:21.434Z,6.25
2023-03-05T13:07:15.152Z,8.13
2023-03-05T13:10:00.742Z,7.22
2023-03-05T13:12:55.668Z,6.68
2023-03-05T13:15:46.454Z,5.78
2023-03-05T13:18:33.347Z,6.85
2023-03-05T13:21:24.622Z,3.60
2023-03-05T13:24:19.785Z,4.15
2023-03-05T13:27:30.081Z,3.75
2023-03-05T13:30:31.127Z,3.53
2023-03-05T13:33:26.029Z,3.22
2023-03-05T13:36:16.173Z,4.50
2023-03-05T13:39:04.159Z,5.47
2023-03-05T13:42:00.915Z,4.55
2023-03-05T13:45:17.875Z,4.75
2023-03-05T13:48:07.470Z,3.92
2023-03-05T13:50:58.769Z,3.70
2023-03-05T13:53:49.279Z,4.65
2023-03-05T13:56:35.015Z,4.00
2023-03-05T13:59:23.042Z,5.47
2023-03-05T14:02:20.897Z,4.90
2023-03-05T14:05:15.422Z,4.15
2023-03-05T14:08:02.005Z,4.85
2023-03-05T14:10:48.570Z,7.47
2023-03-05T14:13:35.089Z,6.30
2023-03-05T14:16:32.662Z,3.67
2023-03-05T14:19:45.205Z,4.82
2023-03-05T14:22:37.466Z,6.65
2023-03-05T14:25:39.988Z,8.97
2023-03-05T14:28:29.331Z,9.60
2023-03-05T14:31:18.433Z,5.55
2023-03-05T14:34:07.300Z,11.32
2023-03-05T14:36:55.258Z,10.35
2023-03-05T14:39:51.741Z,8.18
2023-03-05T14:42:56.513Z,5.97
2023-03-05T14:45:43.825Z,6.75
2023-03-05T14:48:29.361Z,5.45
2023-03-05T14:51:15.145Z,4.38
2023-03-05T14:54:00.577Z,5.28
2023-03-05T14:56:46.300Z,6.78
2023-03-05T14:59:31.955Z,8.55
2023-03-05T15:02:20.516Z,6.43
2023-03-05T15:07:59.022Z,5.85
2023-03-05T15:10:45.122Z,4.95
2023-03-05T15:13:31.850Z,9.85
2023-03-05T15:16:19.857Z,9.10
2023-03-05T15:19:05.896Z,9.82
2023-03-05T15:21:56.733Z,13.30
2023-03-05T15:24:42.545Z,14.95
2023-03-05T15:27:29.556Z,10.00
2023-03-05T15:30:41.203Z,8.15
2023-03-05T15:33:28.503Z,10.55
2023-03-05T15:36:15.593Z,14.07
2023-03-05T15:39:01.479Z,11.32
2023-03-05T15:41:47.254Z,6.30
2023-03-05T15:44:33.533Z,9.57
2023-03-05T15:47:20.947Z,6.88
2023-03-05T15:50:23.356Z,7.45
2023-03-05T15:53:10.369Z,7.13
2023-03-05T15:55:56.068Z,6.50
2023-03-05T15:58:43.453Z,5.68
2023-03-05T16:01:28.906Z,6.53
2023-03-05T16:04:15.786Z,7.70
2023-03-05T16:07:03.896Z,6.68
2023-03-05T16:09:51.138Z,14.75
2023-03-05T16:12:40.961Z,14.10
2023-03-05T16:15:33.716Z,13.02
2023-03-05T16:18:20.318Z,8.70
2023-03-05T16:21:09.335Z,8.48
2023-03-05T16:23:54.778Z,8.80
2023-03-05T16:26:41.942Z,7.43
2023-03-05T16:29:30.800Z,6.95
2023-03-05T16:32:17.917Z,14.77
2023-03-05T16:35:03.665Z,13.40
2023-03-05T16:37:49.654Z,9.65
2023-03-05T16:41:06.045Z,8.45
2023-03-05T16:43:45.640Z,5.78
2023-03-05T16:46:34.622Z,26.13
2023-03-05T16:49:21.022Z,20.80
2023-03-05T16:52:18.261Z,77.28
2023-03-05T16:55:05.869Z,71.28
2023-03-05T16:57:51.190Z,21.75
2023-03-05T17:00:36.707Z,13.70
2023-03-05T17:03:22.896Z,13.80
2023-03-05T17:06:12.580Z,17.77
2023-03-05T17:08:58.856Z,27.20
2023-03-05T17:11:44.229Z,14.52
2023-03-05T17:14:30.161Z,8.38
2023-03-05T17:17:17.109Z,7.45
2023-03-05T17:20:02.656Z,11.07
2023-03-05T17:22:48.451Z,7.93
2023-03-05T17:25:34.056Z,7.00
2023-03-05T17:28:20.189Z,4.63
2023-03-05T17:31:06.570Z,4.80
2023-03-05T17:33:54.812Z,3.67
2023-03-05T17:36:40.642Z,3.60
2023-03-05T17:39:26.513Z,4.13
2023-03-05T17:42:12.061Z,5.38
2023-03-05T17:44:59.298Z,4.47
2023-03-05T17:47:44.692Z,4.38
2023-03-05T17:50:30.726Z,5.03
2023-03-05T17:53:15.997Z,5.35
2023-03-05T17:56:02.314Z,3.45
2023-03-05T17:58:49.890Z,4.70
2023-03-05T18:01:35.699Z,2.88
2023-03-05T18:04:21.709Z,2.47
2023-03-05T18:07:07.414Z,2.60
2023-03-05T18:09:53.288Z,3.40
2023-03-05T18:12:39.069Z,3.30
2023-03-05T18:15:26.167Z,2.60
2023-03-05T18:18:11.789Z,3.40
2023-03-05T18:20:57.292Z,4.25
2023-03-05T18:23:42.872Z,6.20
2023-03-05T18:26:28.436Z,5.80
2023-03-05T18:29:13.946Z,5.57
2023-03-05T18:32:00.608Z,7.55
2023-03-05T18:34:45.981Z,67.68
2023-03-05T18:37:31.644Z,9.82
2023-03-05T18:40:22.931Z,7.65
2023-03-05T18:43:09.763Z,6.50
2023-03-05T18:45:55.964Z,5.95
2023-03-05T18:48:41.279Z,4.72
2023-03-05T18:51:28.522Z,4.40
2023-03-05T18:54:14.471Z,5.00
2023-03-05T18:57:00.270Z,5.68
2023-03-05T18:59:45.986Z,7.50
2023-03-05T19:02:31.172Z,8.50
2023-03-05T19:05:18.526Z,8.55
2023-03-05T19:08:04.258Z,12.20
2023-03-05T19:10:49.443Z,5.65
2023-03-05T19:13:42.147Z,9.50
2023-03-05T19:16:33.849Z,6.32
2023-03-05T19:19:24.570Z,6.53
2023-03-05T19:22:11.525Z,10.05
2023-03-05T19:24:57.669Z,7.55
2023-03-05T19:27:43.707Z,7.32
2023-03-05T19:30:30.490Z,8.70
2023-03-05T19:33:16.752Z,6.88
2023-03-05T19:36:02.393Z,8.20
2023-03-05T19:38:49.625Z,9.07
2023-03-05T19:41:36.341Z,9.98
2023-03-05T19:44:22.704Z,12.05
2023-03-05T19:47:10.619Z,9.55
2023-03-05T19:49:59.520Z,11.68
2023-03-05T19:52:45.531Z,9.43
2023-03-05T19:55:31.242Z,10.65
2023-03-05T19:58:16.898Z,10.23
2023-03-05T20:01:15.515Z,10.70
2023-03-05T20:04:03.315Z,9.43
2023-03-05T20:06:49.517Z,10.38
2023-03-05T20:09:35.635Z,10.50
2023-03-05T20:12:24.326Z,10.07
2023-03-05T20:15:10.042Z,13.00
2023-03-05T20:17:58.226Z,11.73
2023-03-05T20:20:43.838Z,10.23
2023-03-05T20:23:29.421Z,10.00
2023-03-05T20:26:14.959Z,9.43
2023-03-05T20:29:00.356Z,8.05
2023-03-05T20:31:47.054Z,6.13
2023-03-05T20:34:32.837Z,7.00
2023-03-05T20:38:12.836Z,6.68
2023-03-05T20:43:52.196Z,7.40
2023-03-05T20:47:32.357Z,8.40
2023-03-05T20:50:23.683Z,7.30
2023-03-05T20:53:09.984Z,6.65
2023-03-05T20:55:55.685Z,6.45
2023-03-05T20:58:41.513Z,6.30
2023-03-05T21:01:28.600Z,5.53
2023-03-05T21:04:14.459Z,6.07
2023-03-05T21:07:00.220Z,5.30
2023-03-05T21:09:45.692Z,5.57
2023-03-05T21:12:34.539Z,6.28
2023-03-05T21:15:26.737Z,5.38
2023-03-05T21:18:12.180Z,6.60
2023-03-05T21:20:57.824Z,7.35
2023-03-05T21:23:44.313Z,6.30
2023-03-05T21:26:30.104Z,4.90
2023-03-05T21:29:15.616Z,6.18
2023-03-05T21:32:02.050Z,5.22
2023-03-05T21:34:47.478Z,5.88
2023-03-05T21:37:33.029Z,6.05
2023-03-05T21:40:19.792Z,5.68
2023-03-05T21:43:05.611Z,7.50
2023-03-05T21:45:53.696Z,7.15
2023-03-05T21:48:39.675Z,8.88
2023-03-05T21:52:09.091Z,9.65
2023-03-05T21:54:55.989Z,6.43
2023-03-05T21:57:42.852Z,5.97
2023-03-05T22:00:28.967Z,5.70
2023-03-05T22:03:14.710Z,6.07
2023-03-05T22:06:00.193Z,6.55
2023-03-05T22:08:49.780Z,6.38
2023-03-05T22:11:35.335Z,7.05
2023-03-05T22:14:21.170Z,6.15
2023-03-05T22:17:06.508Z,5.07
2023-03-05T22:19:52.060Z,5.03
2023-03-05T22:22:37.585Z,5.97
2023-03-05T22:25:23.133Z,7.30
2023-03-05T22:28:10.663Z,7.03
2023-03-05T22:30:57.030Z,7.60
2023-03-05T22:33:42.751Z,7.72
2023-03-05T22:36:28.262Z,7.82
2023-03-05T22:39:13.957Z,6.53
2023-03-05T22:41:59.388Z,5.95
2023-03-05T22:44:44.813Z,5.90
2023-03-05T22:47:31.354Z,6.50
2023-03-05T22:50:17.703Z,5.78
2023-03-05T22:53:03.601Z,5.53
2023-03-05T22:55:49.289Z,4.30
2023-03-05T22:58:35.107Z,5.35
2023-03-05T23:01:24.236Z,4.35
2023-03-05T23:04:49.481Z,4.95
2023-03-05T23:07:38.218Z,4.40
2023-03-05T23:10:27.396Z,4.15
2023-03-05T23:13:12.922Z,3.53
2023-03-05T23:15:58.443Z,5.45
2023-03-05T23:18:44.055Z,5.05
2023-03-05T23:21:29.496Z,6.13
2023-03-05T23:24:15.042Z,5.78
2023-03-05T23:27:01.026Z,4.80
2023-03-05T23:30:22.753Z,4.53
2023-03-05T23:33:15.613Z,4.13
2023-03-05T23:36:01.384Z,4.78
2023-03-05T23:38:47.769Z,4.43
2023-03-05T23:41:33.354Z,4.75
2023-03-05T23:44:20.653Z,4.00
2023-03-05T23:47:06.323Z,3.97
2023-03-05T23:49:53.486Z,4.20
2023-03-05T23:52:39.001Z,3.80
2023-03-05T23:55:30.442Z,4.40
2023-03-05T23:58:17.111Z,4.30
